createdAt,value
2018-09-29T00:02:24.375Z,50.55
2018-09-29T00:04:53.052Z,51.39
2018-09-29T00:07:21.738Z,51.08
2018-09-29T00:09:50.482Z,51.22
2018-09-29T00:12:19.214Z,51.42
2018-09-29T00:14:48.157Z,51.20
2018-09-29T00:17:16.913Z,51.21
2018-09-29T00:19:45.617Z,51.54
2018-09-29T00:22:14.529Z,51.39
2018-09-29T00:24:43.172Z,51.57
2018-09-29T00:27:11.866Z,51.50
2018-09-29T00:29:40.870Z,51.82
2018-09-29T00:32:09.523Z,52.04
2018-09-29T00:34:38.225Z,52.18
2018-09-29T00:37:07.046Z,51.86
2018-09-29T00:39:35.701Z,51.77
2018-09-29T00:42:04.362Z,52.14
2018-09-29T00:44:33.092Z,52.21
2018-09-29T00:47:01.842Z,52.79
2018-09-29T00:49:30.645Z,53.13
2018-09-29T00:51:59.570Z,52.11
2018-09-29T00:54:28.317Z,52.39
2018-09-29T00:56:57.070Z,52.81
2018-09-29T00:59:26.142Z,53.38
2018-09-29T01:01:54.786Z,53.14
2018-09-29T01:04:23.473Z,53.25
2018-09-29T01:06:52.302Z,53.62
2018-09-29T01:09:21.021Z,53.35
2018-09-29T01:11:49.726Z,54.01
2018-09-29T01:14:18.789Z,54.41
2018-09-29T01:16:47.541Z,54.88
2018-09-29T01:19:16.322Z,54.23
2018-09-29T01:21:45.225Z,54.41
2018-09-29T01:24:14.254Z,55.31
2018-09-29T01:26:42.989Z,54.47
2018-09-29T01:29:11.839Z,54.88
2018-09-29T01:31:40.731Z,54.58
2018-09-29T01:34:09.689Z,55.06
2018-09-29T01:36:38.506Z,54.91
2018-09-29T01:39:08.997Z,54.33
2018-09-29T01:41:37.661Z,54.24
2018-09-29T01:44:06.478Z,54.33
2018-09-29T01:46:35.145Z,54.53
2018-09-29T01:49:04.097Z,54.96
2018-09-29T01:51:33.290Z,55.27
2018-09-29T01:54:01.911Z,54.70
2018-09-29T01:56:31.075Z,54.87
2018-09-29T01:58:59.872Z,55.26
2018-09-29T02:01:28.514Z,55.26
2018-09-29T02:03:57.325Z,56.03
2018-09-29T02:06:25.995Z,54.99
2018-09-29T02:08:54.709Z,55.29
2018-09-29T02:11:23.514Z,56.38
2018-09-29T02:13:52.356Z,57.29
2018-09-29T02:16:21.040Z,56.25
2018-09-29T02:18:50.032Z,56.00
2018-09-29T02:21:18.811Z,57.03
2018-09-29T02:23:47.693Z,57.70
2018-09-29T02:26:16.589Z,56.54
2018-09-29T02:28:45.396Z,56.00
2018-09-29T02:31:14.219Z,56.74
2018-09-29T02:33:43.309Z,56.55
2018-09-29T02:36:11.969Z,57.12
2018-09-29T02:38:40.666Z,57.26
2018-09-29T02:41:09.579Z,57.04
2018-09-29T02:43:38.267Z,58.04
2018-09-29T02:46:06.970Z,57.70
2018-09-29T02:48:35.948Z,57.65
2018-09-29T02:51:04.801Z,57.78
2018-09-29T02:53:33.637Z,58.15
2018-09-29T02:56:02.519Z,58.06
2018-09-29T02:58:31.333Z,58.46
2018-09-29T03:01:00.095Z,58.15
2018-09-29T03:03:28.924Z,57.72
2018-09-29T03:05:57.677Z,58.93
2018-09-29T03:08:26.358Z,58.56
2018-09-29T03:10:55.045Z,58.91
2018-09-29T03:13:23.745Z,59.52
2018-09-29T03:15:52.506Z,58.79
2018-09-29T03:18:21.295Z,59.26
2018-09-29T03:20:49.980Z,59.08
2018-09-29T03:23:18.770Z,59.17
2018-09-29T03:25:47.455Z,59.04
2018-09-29T03:28:16.168Z,59.29
2018-09-29T03:30:44.833Z,59.35
2018-09-29T03:33:13.550Z,59.07
2018-09-29T03:35:42.212Z,59.81
2018-09-29T03:38:10.882Z,59.95
2018-09-29T03:40:39.897Z,59.70
2018-09-29T03:43:08.566Z,59.75
2018-09-29T03:45:37.256Z,60.51
2018-09-29T03:48:06.067Z,59.98
2018-09-29T03:50:34.856Z,60.37
2018-09-29T03:53:03.631Z,61.04
2018-09-29T03:55:32.433Z,60.89
2018-09-29T03:58:01.059Z,61.73
2018-09-29T04:00:30.043Z,61.55
2018-09-29T04:02:58.917Z,61.78
2018-09-29T04:05:27.607Z,61.53
2018-09-29T04:07:56.349Z,62.54
2018-09-29T04:10:25.080Z,62.09
2018-09-29T04:12:53.733Z,62.52
2018-09-29T04:15:22.561Z,62.99
2018-09-29T04:17:51.303Z,62.87
2018-09-29T04:20:20.216Z,62.94
2018-09-29T04:22:48.967Z,63.21
2018-09-29T04:25:17.745Z,63.25
2018-09-29T04:27:46.493Z,64.01
2018-09-29T04:30:15.297Z,63.65
2018-09-29T04:32:44.159Z,64.08
2018-09-29T04:35:12.826Z,64.26
2018-09-29T04:37:41.577Z,64.80
2018-09-29T04:40:10.389Z,64.88
2018-09-29T04:42:39.082Z,65.34
2018-09-29T04:45:07.985Z,65.45
2018-09-29T04:47:36.777Z,65.68
2018-09-29T04:50:05.657Z,65.47
2018-09-29T04:52:34.445Z,66.01
2018-09-29T04:55:03.085Z,65.81
2018-09-29T04:57:32.042Z,65.66
2018-09-29T05:00:00.709Z,65.48
2018-09-29T05:02:29.489Z,65.54
2018-09-29T05:04:58.145Z,65.76
2018-09-29T05:07:26.885Z,65.23
2018-09-29T05:09:55.592Z,65.30
2018-09-29T05:12:24.353Z,65.18
2018-09-29T05:14:53.085Z,65.29
2018-09-29T05:17:21.921Z,65.42
2018-09-29T05:19:50.573Z,65.02
2018-09-29T05:22:19.424Z,65.50
2018-09-29T05:24:48.189Z,65.35
2018-09-29T05:27:16.857Z,65.94
2018-09-29T05:29:45.701Z,65.52
2018-09-29T05:32:14.357Z,66.25
2018-09-29T05:34:43.149Z,66.19
2018-09-29T05:37:12.369Z,66.31
2018-09-29T05:39:41.017Z,65.30
2018-09-29T05:42:09.717Z,65.38
2018-09-29T05:44:38.630Z,65.38
2018-09-29T05:47:07.286Z,65.32
2018-09-29T05:49:36.070Z,64.57
2018-09-29T05:52:04.934Z,65.37
2018-09-29T05:54:34.004Z,65.17
2018-09-29T05:57:03.209Z,64.36
2018-09-29T05:59:31.901Z,64.42
2018-09-29T06:02:00.593Z,64.23
2018-09-29T06:04:29.838Z,64.32
2018-09-29T06:06:58.681Z,65.17
2018-09-29T06:09:27.352Z,64.85
2018-09-29T06:11:56.198Z,63.96
2018-09-29T06:14:24.910Z,63.63
2018-09-29T06:16:53.563Z,64.19
2018-09-29T06:19:22.501Z,64.27
2018-09-29T06:21:51.260Z,64.41
2018-09-29T06:24:20.310Z,63.59
2018-09-29T06:26:49.001Z,63.10
2018-09-29T06:29:17.680Z,63.27
2018-09-29T06:31:46.410Z,62.80
2018-09-29T06:34:15.607Z,62.55
2018-09-29T06:36:44.381Z,63.12
2018-09-29T06:39:13.113Z,62.97
2018-09-29T06:41:41.780Z,63.35
2018-09-29T06:44:10.429Z,62.59
2018-09-29T06:46:39.105Z,63.45
2018-09-29T06:49:07.738Z,62.57
2018-09-29T06:51:36.365Z,63.35
2018-09-29T06:54:05.236Z,62.12
2018-09-29T06:56:33.873Z,62.33
2018-09-29T06:59:02.681Z,63.00
2018-09-29T07:01:31.410Z,62.00
2018-09-29T07:04:00.084Z,61.96
2018-09-29T07:06:29.225Z,61.72
2018-09-29T07:08:57.909Z,62.48
2018-09-29T07:11:26.642Z,62.09
2018-09-29T07:13:55.748Z,62.08
2018-09-29T07:16:24.413Z,61.70
2018-09-29T07:18:53.327Z,62.12
2018-09-29T07:21:22.092Z,61.14
2018-09-29T07:23:50.725Z,61.28
2018-09-29T07:26:19.486Z,60.22
2018-09-29T07:28:48.193Z,59.84
2018-09-29T07:31:17.248Z,59.65
2018-09-29T07:33:45.945Z,60.15
2018-09-29T07:36:14.621Z,59.52
2018-09-29T07:38:43.559Z,59.02
2018-09-29T07:41:12.383Z,59.97
2018-09-29T07:43:41.348Z,58.76
2018-09-29T07:46:10.084Z,58.33
2018-09-29T07:48:38.726Z,58.63
2018-09-29T07:51:07.465Z,58.03
2018-09-29T07:53:36.175Z,57.39
2018-09-29T07:56:05.638Z,56.99
2018-09-29T07:58:35.978Z,56.92
2018-09-29T08:01:04.679Z,56.15
2018-09-29T08:03:33.458Z,55.40
2018-09-29T08:06:02.258Z,55.18
2018-09-29T08:08:31.176Z,54.93
2018-09-29T08:10:59.832Z,54.82
2018-09-29T08:13:28.513Z,54.54
2018-09-29T08:15:57.432Z,53.44
2018-09-29T08:18:26.166Z,52.23
2018-09-29T08:20:54.838Z,51.61
2018-09-29T08:23:23.840Z,51.50
2018-09-29T08:25:52.549Z,51.47
2018-09-29T08:28:21.361Z,51.02
2018-09-29T08:30:50.038Z,50.79
2018-09-29T08:33:18.740Z,50.07
2018-09-29T08:35:47.740Z,50.05
2018-09-29T08:38:16.600Z,49.43
2018-09-29T08:40:45.309Z,50.04
2018-09-29T08:43:14.129Z,49.26
2018-09-29T08:45:42.925Z,49.04
2018-09-29T08:48:11.614Z,48.50
2018-09-29T08:50:40.506Z,48.17
2018-09-29T08:53:09.266Z,48.42
2018-09-29T08:55:37.970Z,48.56
2018-09-29T08:58:06.659Z,47.73
2018-09-29T09:00:35.623Z,47.49
2018-09-29T09:03:04.389Z,47.58
2018-09-29T09:05:33.170Z,47.27
2018-09-29T09:08:02.148Z,47.12
2018-09-29T09:10:31.059Z,45.75
2018-09-29T09:12:59.774Z,45.42
2018-09-29T09:15:28.529Z,45.10
2018-09-29T09:17:57.207Z,44.49
2018-09-29T09:20:25.928Z,45.75
2018-09-29T09:22:54.750Z,44.51
2018-09-29T09:25:23.423Z,45.83
2018-09-29T09:27:52.053Z,45.14
2018-09-29T09:30:20.988Z,45.57
2018-09-29T09:32:49.796Z,44.16
2018-09-29T09:35:18.569Z,44.45
2018-09-29T09:37:47.249Z,43.58
2018-09-29T09:40:15.926Z,42.94
2018-09-29T09:42:44.741Z,43.90
2018-09-29T09:45:13.536Z,43.78
2018-09-29T09:47:42.201Z,43.22
2018-09-29T09:50:10.931Z,42.89
2018-09-29T09:52:39.934Z,41.84
2018-09-29T09:55:08.881Z,42.00
2018-09-29T09:57:37.701Z,41.06
2018-09-29T10:00:06.574Z,41.35
2018-09-29T10:02:40.454Z,41.21
2018-09-29T10:05:09.254Z,40.62
2018-09-29T10:07:38.190Z,41.63
2018-09-29T10:10:06.973Z,40.31
2018-09-29T10:12:35.727Z,40.17
2018-09-29T10:15:04.715Z,40.83
2018-09-29T10:17:33.613Z,39.87
2018-09-29T10:20:02.750Z,39.72
2018-09-29T10:22:31.478Z,40.72
2018-09-29T10:25:00.137Z,40.00
2018-09-29T10:27:29.023Z,39.92
2018-09-29T10:29:57.702Z,38.68
2018-09-29T10:32:26.783Z,38.14
2018-09-29T10:34:55.649Z,39.58
2018-09-29T10:37:24.517Z,37.96
2018-09-29T10:39:53.250Z,37.76
2018-09-29T10:42:21.950Z,37.86
2018-09-29T10:44:50.605Z,38.26
2018-09-29T10:47:19.409Z,38.07
2018-09-29T10:49:51.024Z,36.62
2018-09-29T10:52:19.819Z,36.20
2018-09-29T10:54:48.950Z,37.67
2018-09-29T10:57:17.705Z,38.31
2018-09-29T10:59:46.554Z,37.78
2018-09-29T11:02:15.274Z,37.88
2018-09-29T11:04:43.967Z,38.30
2018-09-29T11:07:12.993Z,38.65
2018-09-29T11:09:41.651Z,38.88
2018-09-29T11:12:10.369Z,34.38
2018-09-29T11:14:39.248Z,34.98
2018-09-29T11:17:07.926Z,34.85
2018-09-29T11:19:36.729Z,35.56
2018-09-29T11:22:05.634Z,35.37
2018-09-29T11:24:34.711Z,36.14
2018-09-29T11:27:03.596Z,34.63
2018-09-29T11:29:32.394Z,34.40
2018-09-29T11:32:01.195Z,34.41
2018-09-29T11:34:29.869Z,35.28
2018-09-29T11:36:58.721Z,35.14
2018-09-29T11:39:27.522Z,33.92
2018-09-29T11:41:56.364Z,33.56
2018-09-29T11:44:25.448Z,34.69
2018-09-29T11:46:54.150Z,34.21
2018-09-29T11:49:22.882Z,33.12
2018-09-29T11:51:51.708Z,33.30
2018-09-29T11:54:20.397Z,32.24
2018-09-29T11:56:49.178Z,31.54
2018-09-29T11:59:18.073Z,30.62
2018-09-29T12:01:46.850Z,29.63
2018-09-29T12:04:15.610Z,29.15
2018-09-29T12:06:44.413Z,28.90
2018-09-29T12:09:14.085Z,28.19
2018-09-29T12:11:43.333Z,27.56
2018-09-29T12:14:12.032Z,27.96
2018-09-29T12:16:40.808Z,25.36
2018-09-29T12:19:09.496Z,24.46
2018-09-29T12:21:38.153Z,23.59
2018-09-29T12:24:06.991Z,23.77
2018-09-29T12:26:36.213Z,24.07
2018-09-29T12:29:04.889Z,23.10
2018-09-29T12:31:33.640Z,22.45
2018-09-29T12:34:02.506Z,22.45
2018-09-29T12:36:32.726Z,21.62
2018-09-29T12:39:01.671Z,21.38
2018-09-29T12:41:30.462Z,22.01
2018-09-29T12:43:59.165Z,20.59
2018-09-29T12:46:28.301Z,19.74
2018-09-29T12:48:57.006Z,20.17
2018-09-29T12:51:26.062Z,19.58
2018-09-29T12:53:54.756Z,19.14
2018-09-29T12:56:23.386Z,18.36
2018-09-29T12:58:52.164Z,18.90
2018-09-29T13:01:20.983Z,18.46
2018-09-29T13:03:49.854Z,17.76
2018-09-29T13:06:18.766Z,17.92
2018-09-29T13:08:47.553Z,18.74
2018-09-29T13:11:16.234Z,18.25
2018-09-29T13:13:44.978Z,18.31
2018-09-29T13:16:13.910Z,19.61
2018-09-29T13:18:42.570Z,19.42
2018-09-29T13:21:11.499Z,17.12
2018-09-29T13:23:40.258Z,16.57
2018-09-29T13:26:08.993Z,16.43
2018-09-29T13:28:37.853Z,17.11
2018-09-29T13:31:06.598Z,17.67
2018-09-29T13:33:35.361Z,17.35
2018-09-29T13:36:04.229Z,17.11
2018-09-29T13:38:32.964Z,16.30
2018-09-29T13:41:01.666Z,15.73
2018-09-29T13:43:30.362Z,16.03
2018-09-29T13:45:59.316Z,15.55
2018-09-29T13:48:28.382Z,16.36
2018-09-29T13:50:57.070Z,15.59
2018-09-29T13:53:25.821Z,16.23
2018-09-29T13:55:54.643Z,15.15
2018-09-29T13:58:23.603Z,16.96
2018-09-29T14:00:52.624Z,16.60
2018-09-29T14:03:21.379Z,16.73
2018-09-29T14:05:50.070Z,17.99
2018-09-29T14:08:18.986Z,18.78
2018-09-29T14:10:47.869Z,19.82
2018-09-29T14:13:17.295Z,21.20
2018-09-29T14:15:46.048Z,22.92
2018-09-29T14:18:14.709Z,23.80
2018-09-29T14:20:43.379Z,24.16
2018-09-29T14:23:12.023Z,26.25
2018-09-29T14:25:40.857Z,25.92
2018-09-29T14:28:16.245Z,26.37
2018-09-29T14:30:45.259Z,26.79
2018-09-29T14:33:14.237Z,26.90
2018-09-29T14:35:42.890Z,29.18
2018-09-29T14:38:11.965Z,28.93
2018-09-29T14:40:40.739Z,29.85
2018-09-29T14:43:09.630Z,30.95
2018-09-29T14:45:38.661Z,31.70
2018-09-29T14:48:07.539Z,31.24
2018-09-29T14:50:36.361Z,31.51
2018-09-29T14:53:05.223Z,32.32
2018-09-29T14:55:34.242Z,32.81
2018-09-29T14:58:02.970Z,32.59
2018-09-29T15:00:31.736Z,33.05
2018-09-29T15:03:00.629Z,33.11
2018-09-29T15:05:29.306Z,34.37
2018-09-29T15:07:58.139Z,34.56
2018-09-29T15:10:26.939Z,34.60
2018-09-29T15:12:55.842Z,33.79
2018-09-29T15:15:24.543Z,33.14
2018-09-29T15:17:53.250Z,33.54
2018-09-29T15:20:22.181Z,34.11
2018-09-29T15:22:50.945Z,34.43
2018-09-29T15:25:19.667Z,34.88
2018-09-29T15:27:48.748Z,35.18
2018-09-29T15:30:17.442Z,35.46
2018-09-29T15:32:46.073Z,35.78
2018-09-29T15:35:14.823Z,36.16
2018-09-29T15:37:43.604Z,35.40
2018-09-29T15:40:12.399Z,35.62
2018-09-29T15:42:41.195Z,35.22
2018-09-29T15:45:10.546Z,35.30
2018-09-29T15:47:39.277Z,35.16
2018-09-29T15:50:08.653Z,35.01
2018-09-29T15:52:37.539Z,34.93
2018-09-29T15:55:06.624Z,36.83
2018-09-29T15:57:35.534Z,36.72
2018-09-29T16:00:04.530Z,36.71
2018-09-29T16:02:33.417Z,37.88
2018-09-29T16:05:02.206Z,37.34
2018-09-29T16:07:30.997Z,37.88
2018-09-29T16:09:59.929Z,38.41
2018-09-29T16:12:28.908Z,38.23
2018-09-29T16:14:57.897Z,38.22
2018-09-29T16:17:27.015Z,38.95
2018-09-29T16:19:55.806Z,38.95
2018-09-29T16:22:24.524Z,38.99
2018-09-29T16:24:53.365Z,39.69
2018-09-29T16:27:22.151Z,40.27
2018-09-29T16:29:50.809Z,40.01
2018-09-29T16:32:20.032Z,40.89
2018-09-29T16:34:48.805Z,40.24
2018-09-29T16:37:17.805Z,40.23
2018-09-29T16:39:46.509Z,40.44
2018-09-29T16:42:15.249Z,41.04
2018-09-29T16:44:44.084Z,40.84
2018-09-29T16:47:12.810Z,41.20
2018-09-29T16:49:41.649Z,41.75
2018-09-29T16:52:10.575Z,41.82
2018-09-29T16:54:39.299Z,41.47
2018-09-29T16:57:08.121Z,41.14
2018-09-29T16:59:36.921Z,41.39
2018-09-29T17:02:05.593Z,41.52
2018-09-29T17:04:34.472Z,41.11
2018-09-29T17:07:03.087Z,41.41
2018-09-29T17:09:32.181Z,41.57
2018-09-29T17:12:00.926Z,41.89
2018-09-29T17:14:29.613Z,42.41
2018-09-29T17:16:58.313Z,42.56
2018-09-29T17:19:27.033Z,42.36
2018-09-29T17:21:55.872Z,43.73
2018-09-29T17:24:24.508Z,43.71
2018-09-29T17:26:53.282Z,44.15
2018-09-29T17:29:21.981Z,44.39
2018-09-29T17:31:50.826Z,44.72
2018-09-29T17:34:19.761Z,44.65
2018-09-29T17:36:48.554Z,45.16
2018-09-29T17:39:17.333Z,44.93
2018-09-29T17:41:46.117Z,45.39
2018-09-29T17:44:14.774Z,45.42
2018-09-29T17:46:43.839Z,45.65
2018-09-29T17:49:12.489Z,45.42
2018-09-29T17:51:41.215Z,45.60
2018-09-29T17:54:09.947Z,45.98
2018-09-29T17:56:39.058Z,46.58
2018-09-29T17:59:08.235Z,46.67
2018-09-29T18:01:36.877Z,46.38
2018-09-29T18:04:05.938Z,46.54
2018-09-29T18:06:34.564Z,46.02
2018-09-29T18:09:03.811Z,46.08
2018-09-29T18:11:33.224Z,46.28
2018-09-29T18:14:01.878Z,45.95
2018-09-29T18:16:30.814Z,45.88
2018-09-29T18:18:59.523Z,46.21
2018-09-29T18:21:28.307Z,46.01
2018-09-29T18:23:57.434Z,46.95
2018-09-29T18:26:26.559Z,46.68
2018-09-29T18:28:55.683Z,46.49
2018-09-29T18:31:24.460Z,46.84
2018-09-29T18:33:53.158Z,46.82
2018-09-29T18:36:22.052Z,47.27
2018-09-29T18:38:51.054Z,47.49
2018-09-29T18:41:19.797Z,47.59
2018-09-29T18:43:48.477Z,47.17
2018-09-29T18:46:17.337Z,47.46
2018-09-29T18:48:46.123Z,47.44
2018-09-29T18:51:14.898Z,47.55
2018-09-29T18:53:43.677Z,47.98
2018-09-29T18:56:12.408Z,48.17
2018-09-29T18:58:41.113Z,47.85
2018-09-29T19:01:09.906Z,48.08
2018-09-29T19:03:38.626Z,47.75
2018-09-29T19:06:07.612Z,47.95
2018-09-29T19:08:36.436Z,48.16
2018-09-29T19:11:05.189Z,48.12
2018-09-29T19:13:33.933Z,48.49
2018-09-29T19:16:03.090Z,49.17
2018-09-29T19:18:31.760Z,48.94
2018-09-29T19:21:00.523Z,49.17
2018-09-29T19:23:29.203Z,49.18
2018-09-29T19:25:57.970Z,49.48
2018-09-29T19:28:26.640Z,49.87
2018-09-29T19:30:55.321Z,49.95
2018-09-29T19:33:24.094Z,50.09
2018-09-29T19:35:52.941Z,50.43
2018-09-29T19:38:21.805Z,49.85
2018-09-29T19:40:50.521Z,50.31
2018-09-29T19:43:19.218Z,50.09
2018-09-29T19:45:48.101Z,49.95
2018-09-29T19:48:16.721Z,50.10
2018-09-29T19:50:45.458Z,50.13
2018-09-29T19:53:14.185Z,50.26
2018-09-29T19:55:43.004Z,50.74
2018-09-29T19:58:11.737Z,50.81
2018-09-29T20:00:40.395Z,50.54
2018-09-29T20:03:09.109Z,51.00
2018-09-29T20:05:38.355Z,51.21
2018-09-29T20:08:07.144Z,51.48
2018-09-29T20:10:35.895Z,51.62
2018-09-29T20:13:04.593Z,51.88
2018-09-29T20:15:33.363Z,51.74
2018-09-29T20:18:02.098Z,52.23
2018-09-29T20:20:30.949Z,52.87
2018-09-29T20:22:59.733Z,53.03
2018-09-29T20:25:28.425Z,53.20
2018-09-29T20:27:57.358Z,53.17
2018-09-29T20:30:26.060Z,53.33
2018-09-29T20:32:54.799Z,53.21
2018-09-29T20:35:23.486Z,53.66
2018-09-29T20:37:52.158Z,53.67
2018-09-29T20:40:21.195Z,53.82
2018-09-29T20:42:49.883Z,54.45
2018-09-29T20:45:18.626Z,54.89
2018-09-29T20:47:47.685Z,55.00
2018-09-29T20:50:16.513Z,55.46
2018-09-29T20:52:45.598Z,55.50
2018-09-29T20:55:14.311Z,55.81
2018-09-29T20:57:43.131Z,55.82
2018-09-29T21:00:11.957Z,56.13
2018-09-29T21:02:40.714Z,56.10
2018-09-29T21:05:09.482Z,55.99
2018-09-29T21:07:38.210Z,55.94
2018-09-29T21:10:06.959Z,55.99
2018-09-29T21:12:35.869Z,56.32
2018-09-29T21:15:04.623Z,56.65
2018-09-29T21:17:33.254Z,56.92
2018-09-29T21:20:02.108Z,56.95
2018-09-29T21:22:30.846Z,57.33
2018-09-29T21:24:59.551Z,57.90
2018-09-29T21:27:28.253Z,57.65
2018-09-29T21:29:57.051Z,58.06
2018-09-29T21:32:25.726Z,57.92
2018-09-29T21:34:54.534Z,57.71
2018-09-29T21:37:23.243Z,57.83
2018-09-29T21:39:51.978Z,57.90
2018-09-29T21:42:20.672Z,57.24
2018-09-29T21:44:49.380Z,57.57
2018-09-29T21:47:18.030Z,57.54
2018-09-29T21:49:46.873Z,57.51
2018-09-29T21:52:15.569Z,57.01
2018-09-29T21:54:44.429Z,56.59
2018-09-29T21:57:13.139Z,57.14
2018-09-29T21:59:41.905Z,57.01
2018-09-29T22:02:10.714Z,57.58
2018-09-29T22:04:39.580Z,57.83
2018-09-29T22:07:08.248Z,58.17
2018-09-29T22:09:36.906Z,58.58
2018-09-29T22:12:05.567Z,59.80
2018-09-29T22:14:34.349Z,59.23
2018-09-29T22:17:03.345Z,58.82
2018-09-29T22:19:32.111Z,59.30
2018-09-29T22:22:01.106Z,60.48
2018-09-29T22:24:29.909Z,60.14
2018-09-29T22:26:58.562Z,59.33
2018-09-29T22:29:27.397Z,59.76
2018-09-29T22:31:56.193Z,59.96
2018-09-29T22:34:24.934Z,59.83
2018-09-29T22:36:53.677Z,59.79
2018-09-29T22:39:22.468Z,60.75
2018-09-29T22:41:51.345Z,60.54
2018-09-29T22:44:20.002Z,60.20
2018-09-29T22:46:48.724Z,60.78
2018-09-29T22:49:17.534Z,60.32
2018-09-29T22:51:46.327Z,59.95
2018-09-29T22:54:15.185Z,60.33
2018-09-29T22:56:43.933Z,60.94
2018-09-29T22:59:12.722Z,60.62
2018-09-29T23:01:41.472Z,60.25
2018-09-29T23:04:10.218Z,60.05
2018-09-29T23:06:39.014Z,60.64
2018-09-29T23:09:10.366Z,60.48
2018-09-29T23:11:39.070Z,60.42
2018-09-29T23:14:08.094Z,61.27
2018-09-29T23:16:36.861Z,61.55
2018-09-29T23:19:05.913Z,61.27
2018-09-29T23:21:34.597Z,61.48
2018-09-29T23:24:03.422Z,61.71
2018-09-29T23:26:32.160Z,62.05
2018-09-29T23:29:00.842Z,62.52
2018-09-29T23:31:29.519Z,62.63
2018-09-29T23:33:58.173Z,62.55
2018-09-29T23:36:26.891Z,63.55
2018-09-29T23:38:55.613Z,63.35
2018-09-29T23:41:24.390Z,63.57
2018-09-29T23:43:53.356Z,63.62
2018-09-29T23:46:22.119Z,63.66
2018-09-29T23:48:50.910Z,64.00
2018-09-29T23:51:19.897Z,64.49
2018-09-29T23:53:48.665Z,64.10
2018-09-29T23:56:17.682Z,65.07
2018-09-29T23:58:46.373Z,65.12
